sensor_id;sensor_type;location;lat;lon;timestamp;pressure;altitude;pressure_sealevel;temperature;humidity
56334;BME280;42240;53.626;55.886;2023-02-28T00:00:03;76857.38;;;-145.10;100.00
56334;BME280;42240;53.626;55.886;2023-02-28T00:01:42;76861.34;;;-145.10;100.00
56334;BME280;42240;53.626;55.886;2023-02-28T00:03:16;76857.38;;;-145.10;100.00
56334;BME280;42240;53.626;55.886;2023-02-28T00:04:49;76859.34;;;-145.10;100.00
56334;BME280;42240;53.626;55.886;2023-02-28T00:06:25;76861.34;;;-145.10;100.00
56334;BME280;42240;53.626;55.886;2023-02-28T00:07:59;76855.41;;;-145.10;100.00
56334;BME280;42240;53.626;55.886;2023-02-28T00:09:33;76841.56;;;-145.10;100.00
56334;BME280;42240;53.626;55.886;2023-02-28T00:11:08;76831.66;;;-145.10;100.00
56334;BME280;42240;53.626;55.886;2023-02-28T00:12:42;76843.53;;;-145.10;100.00
56334;BME280;42240;53.626;55.886;2023-02-28T00:14:15;76845.50;;;-145.10;100.00
56334;BME280;42240;53.626;55.886;2023-02-28T00:15:47;76833.66;;;-145.10;100.00
56334;BME280;42240;53.626;55.886;2023-02-28T00:17:30;76849.47;;;-145.10;100.00
56334;BME280;42240;53.626;55.886;2023-02-28T00:19:03;76849.47;;;-145.10;100.00
56334;BME280;42240;53.626;55.886;2023-02-28T00:20:36;76839.56;;;-145.10;100.00
56334;BME280;42240;53.626;55.886;2023-02-28T00:22:09;76837.59;;;-145.10;100.00
56334;BME280;42240;53.626;55.886;2023-02-28T00:23:43;76865.28;;;-145.10;100.00
56334;BME280;42240;53.626;55.886;2023-02-28T00:25:20;76841.56;;;-145.10;100.00
56334;BME280;42240;53.626;55.886;2023-02-28T00:26:53;76845.50;;;-145.10;100.00
56334;BME280;42240;53.626;55.886;2023-02-28T00:28:26;76841.56;;;-145.10;100.00
56334;BME280;42240;53.626;55.886;2023-02-28T00:29:59;76843.53;;;-145.10;100.00
56334;BME280;42240;53.626;55.886;2023-02-28T00:31:32;76843.53;;;-145.10;100.00
56334;BME280;42240;53.626;55.886;2023-02-28T00:33:05;76833.66;;;-145.10;100.00
56334;BME280;42240;53.626;55.886;2023-02-28T00:34:38;76851.44;;;-145.10;100.00
56334;BME280;42240;53.626;55.886;2023-02-28T00:36:13;76849.47;;;-145.10;100.00
56334;BME280;42240;53.626;55.886;2023-02-28T00:37:47;76863.31;;;-145.10;100.00
56334;BME280;42240;53.626;55.886;2023-02-28T00:39:21;76843.53;;;-145.10;100.00
56334;BME280;42240;53.626;55.886;2023-02-28T00:40:54;76833.66;;;-145.10;100.00
56334;BME280;42240;53.626;55.886;2023-02-28T00:42:27;76841.56;;;-145.10;100.00
56334;BME280;42240;53.626;55.886;2023-02-28T00:44:00;76829.69;;;-145.10;100.00
56334;BME280;42240;53.626;55.886;2023-02-28T00:45:37;76843.53;;;-145.10;100.00
56334;BME280;42240;53.626;55.886;2023-02-28T00:47:10;76845.50;;;-145.10;100.00
56334;BME280;42240;53.626;55.886;2023-02-28T00:48:43;76841.56;;;-145.10;100.00
56334;BME280;42240;53.626;55.886;2023-02-28T00:50:18;76833.66;;;-145.10;100.00
56334;BME280;42240;53.626;55.886;2023-02-28T00:51:51;76829.69;;;-145.10;100.00
56334;BME280;42240;53.626;55.886;2023-02-28T00:53:24;76841.56;;;-145.10;100.00
56334;BME280;42240;53.626;55.886;2023-02-28T00:54:57;76837.59;;;-145.10;100.00
56334;BME280;42240;53.626;55.886;2023-02-28T00:56:31;76841.56;;;-145.10;100.00
56334;BME280;42240;53.626;55.886;2023-02-28T00:58:04;76833.66;;;-145.10;100.00
56334;BME280;42240;53.626;55.886;2023-02-28T00:59:37;76827.72;;;-145.10;100.00
56334;BME280;42240;53.626;55.886;2023-02-28T01:01:11;76821.78;;;-145.10;100.00
56334;BME280;42240;53.626;55.886;2023-02-28T01:02:44;76807.94;;;-145.10;100.00
56334;BME280;42240;53.626;55.886;2023-02-28T01:04:19;76811.88;;;-145.10;100.00
56334;BME280;42240;53.626;55.886;2023-02-28T01:05:52;76817.81;;;-145.10;100.00
56334;BME280;42240;53.626;55.886;2023-02-28T01:07:25;76823.75;;;-145.10;100.00
56334;BME280;42240;53.626;55.886;2023-02-28T01:08:59;76819.81;;;-145.10;100.00
56334;BME280;42240;53.626;55.886;2023-02-28T01:10:33;76811.88;;;-145.10;100.00
56334;BME280;42240;53.626;55.886;2023-02-28T01:12:09;76823.75;;;-145.10;100.00
56334;BME280;42240;53.626;55.886;2023-02-28T01:13:43;76815.84;;;-145.10;100.00
56334;BME280;42240;53.626;55.886;2023-02-28T01:15:17;76817.81;;;-145.10;100.00
56334;BME280;42240;53.626;55.886;2023-02-28T01:16:50;76821.78;;;-145.10;100.00
56334;BME280;42240;53.626;55.886;2023-02-28T01:18:24;76821.78;;;-145.10;100.00
56334;BME280;42240;53.626;55.886;2023-02-28T01:19:57;76827.72;;;-145.10;100.00
56334;BME280;42240;53.626;55.886;2023-02-28T01:21:30;76815.84;;;-145.10;100.00
56334;BME280;42240;53.626;55.886;2023-02-28T01:23:03;76827.72;;;-145.10;100.00
56334;BME280;42240;53.626;55.886;2023-02-28T01:24:39;76809.91;;;-145.10;100.00
56334;BME280;42240;53.626;55.886;2023-02-28T01:26:14;76802.00;;;-145.10;100.00
56334;BME280;42240;53.626;55.886;2023-02-28T01:27:48;76821.78;;;-145.10;100.00
56334;BME280;42240;53.626;55.886;2023-02-28T01:29:21;76815.84;;;-145.10;100.00
56334;BME280;42240;53.626;55.886;2023-02-28T01:30:54;76811.88;;;-145.10;100.00
56334;BME280;42240;53.626;55.886;2023-02-28T01:32:27;76813.88;;;-145.10;100.00
56334;BME280;42240;53.626;55.886;2023-02-28T01:34:00;76805.97;;;-145.10;100.00
56334;BME280;42240;53.626;55.886;2023-02-28T01:35:34;76802.00;;;-145.10;100.00
56334;BME280;42240;53.626;55.886;2023-02-28T01:37:08;76805.97;;;-145.10;100.00
56334;BME280;42240;53.626;55.886;2023-02-28T01:38:42;76800.03;;;-145.10;100.00
56334;BME280;42240;53.626;55.886;2023-02-28T01:40:15;76803.97;;;-145.10;100.00
56334;BME280;42240;53.626;55.886;2023-02-28T01:41:48;76809.91;;;-145.10;100.00
56334;BME280;42240;53.626;55.886;2023-02-28T01:43:27;76849.47;;;-145.10;100.00
56334;BME280;42240;53.626;55.886;2023-02-28T01:45:06;76796.06;;;-145.10;100.00
56334;BME280;42240;53.626;55.886;2023-02-28T01:46:39;76809.91;;;-145.10;100.00
56334;BME280;42240;53.626;55.886;2023-02-28T01:48:13;76825.72;;;-145.10;100.00
56334;BME280;42240;53.626;55.886;2023-02-28T01:49:47;76869.25;;;-145.10;100.00
56334;BME280;42240;53.626;55.886;2023-02-28T01:51:25;76807.94;;;-145.10;100.00
56334;BME280;42240;53.626;55.886;2023-02-28T01:53:03;76839.56;;;-145.10;100.00
56334;BME280;42240;53.626;55.886;2023-02-28T01:54:37;76821.78;;;-145.10;100.00
56334;BME280;42240;53.626;55.886;2023-02-28T01:56:12;76802.00;;;-145.10;100.00
56334;BME280;42240;53.626;55.886;2023-02-28T01:57:57;76809.91;;;-145.10;100.00
56334;BME280;42240;53.626;55.886;2023-02-28T01:59:38;76807.94;;;-145.10;100.00
56334;BME280;42240;53.626;55.886;2023-02-28T02:01:13;76809.91;;;-145.10;100.00
56334;BME280;42240;53.626;55.886;2023-02-28T02:02:56;76805.97;;;-145.10;100.00
56334;BME280;42240;53.626;55.886;2023-02-28T02:04:38;76809.91;;;-145.10;100.00
56334;BME280;42240;53.626;55.886;2023-02-28T02:06:14;76821.78;;;-145.10;100.00
56334;BME280;42240;53.626;55.886;2023-02-28T02:07:51;76823.75;;;-145.10;100.00
56334;BME280;42240;53.626;55.886;2023-02-28T02:09:25;76825.72;;;-145.10;100.00
56334;BME280;42240;53.626;55.886;2023-02-28T02:10:59;76802.00;;;-145.10;100.00
56334;BME280;42240;53.626;55.886;2023-02-28T02:14:44;76786.19;;;-145.10;100.00
56334;BME280;42240;53.626;55.886;2023-02-28T02:18:28;76794.09;;;-145.10;100.00
56334;BME280;42240;53.626;55.886;2023-02-28T02:20:27;76792.13;;;-145.10;100.00
56334;BME280;42240;53.626;55.886;2023-02-28T02:22:27;76800.03;;;-145.10;100.00
56334;BME280;42240;53.626;55.886;2023-02-28T02:24:32;76794.09;;;-145.10;100.00
56334;BME280;42240;53.626;55.886;2023-02-28T02:36:27;76792.13;;;-145.10;100.00
56334;BME280;42240;53.626;55.886;2023-02-28T02:38:19;76786.19;;;-145.10;100.00
56334;BME280;42240;53.626;55.886;2023-02-28T02:40:20;76805.97;;;-145.10;100.00
56334;BME280;42240;53.626;55.886;2023-02-28T02:41:52;76792.13;;;-145.10;100.00
56334;BME280;42240;53.626;55.886;2023-02-28T02:43:32;76784.22;;;-145.10;100.00
56334;BME280;42240;53.626;55.886;2023-02-28T02:45:14;76877.16;;;-145.10;100.00
56334;BME280;42240;53.626;55.886;2023-02-28T02:46:53;76778.28;;;-145.10;100.00
56334;BME280;42240;53.626;55.886;2023-02-28T02:48:34;76776.28;;;-145.10;100.00
56334;BME280;42240;53.626;55.886;2023-02-28T02:50:45;76766.41;;;-145.10;100.00
56334;BME280;42240;53.626;55.886;2023-02-28T02:52:23;76784.22;;;-145.10;100.00
56334;BME280;42240;53.626;55.886;2023-02-28T02:54:13;76782.22;;;-145.10;100.00
56334;BME280;42240;53.626;55.886;2023-02-28T02:55:51;76792.13;;;-145.10;100.00
56334;BME280;42240;53.626;55.886;2023-02-28T02:57:40;76786.19;;;-145.10;100.00
56334;BME280;42240;53.626;55.886;2023-02-28T02:59:19;76796.06;;;-145.10;100.00
56334;BME280;42240;53.626;55.886;2023-02-28T03:00:57;76798.03;;;-145.10;100.00
56334;BME280;42240;53.626;55.886;2023-02-28T03:02:32;76813.88;;;-145.10;100.00
56334;BME280;42240;53.626;55.886;2023-02-28T03:04:14;76802.00;;;-145.10;100.00
56334;BME280;42240;53.626;55.886;2023-02-28T03:05:50;76794.09;;;-145.10;100.00
56334;BME280;42240;53.626;55.886;2023-02-28T03:07:23;76811.88;;;-145.10;100.00
56334;BME280;42240;53.626;55.886;2023-02-28T03:08:59;76811.88;;;-145.10;100.00
56334;BME280;42240;53.626;55.886;2023-02-28T03:12:12;76811.88;;;-145.10;100.00
56334;BME280;42240;53.626;55.886;2023-02-28T03:14:16;76794.09;;;-145.10;100.00
56334;BME280;42240;53.626;55.886;2023-02-28T03:18:06;76809.91;;;-145.10;100.00
56334;BME280;42240;53.626;55.886;2023-02-28T03:21:20;76829.69;;;-145.10;100.00
56334;BME280;42240;53.626;55.886;2023-02-28T03:23:04;76833.66;;;-145.10;100.00
56334;BME280;42240;53.626;55.886;2023-02-28T03:24:54;76815.84;;;-145.10;100.00
56334;BME280;42240;53.626;55.886;2023-02-28T03:26:29;76829.69;;;-145.10;100.00
56334;BME280;42240;53.626;55.886;2023-02-28T03:31:59;76875.16;;;-145.10;100.00
56334;BME280;42240;53.626;55.886;2023-02-28T03:33:41;76837.59;;;-145.10;100.00
56334;BME280;42240;53.626;55.886;2023-02-28T03:35:20;76837.59;;;-145.10;100.00
56334;BME280;42240;53.626;55.886;2023-02-28T03:36:59;76837.59;;;-145.10;100.00
56334;BME280;42240;53.626;55.886;2023-02-28T03:38:57;76825.72;;;-145.10;100.00
56334;BME280;42240;53.626;55.886;2023-02-28T03:40:33;76837.59;;;-145.10;100.00
56334;BME280;42240;53.626;55.886;2023-02-28T03:42:11;76845.50;;;-145.10;100.00
56334;BME280;42240;53.626;55.886;2023-02-28T03:43:54;76859.34;;;-145.10;100.00
56334;BME280;42240;53.626;55.886;2023-02-28T03:45:30;76847.50;;;-145.10;100.00
56334;BME280;42240;53.626;55.886;2023-02-28T03:47:12;76867.25;;;-145.10;100.00
56334;BME280;42240;53.626;55.886;2023-02-28T03:49:15;76853.41;;;-145.10;100.00
56334;BME280;42240;53.626;55.886;2023-02-28T03:50:53;76857.38;;;-145.10;100.00
56334;BME280;42240;53.626;55.886;2023-02-28T03:52:31;76845.50;;;-145.10;100.00
56334;BME280;42240;53.626;55.886;2023-02-28T03:54:11;76859.34;;;-145.10;100.00
56334;BME280;42240;53.626;55.886;2023-02-28T03:55:49;76867.25;;;-145.10;100.00
56334;BME280;42240;53.626;55.886;2023-02-28T03:57:42;76887.03;;;-145.10;100.00
56334;BME280;42240;53.626;55.886;2023-02-28T03:59:22;76881.09;;;-145.10;100.00
56334;BME280;42240;53.626;55.886;2023-02-28T04:01:13;76879.13;;;-145.10;100.00
56334;BME280;42240;53.626;55.886;2023-02-28T04:02:48;76900.88;;;-145.10;100.00
56334;BME280;42240;53.626;55.886;2023-02-28T04:04:25;76912.75;;;-145.10;100.00
56334;BME280;42240;53.626;55.886;2023-02-28T04:05:58;76916.69;;;-145.10;100.00
56334;BME280;42240;53.626;55.886;2023-02-28T04:07:31;76902.84;;;-145.10;100.00
56334;BME280;42240;53.626;55.886;2023-02-28T04:09:06;76916.69;;;-145.10;100.00
56334;BME280;42240;53.626;55.886;2023-02-28T04:10:41;76916.69;;;-145.10;100.00
56334;BME280;42240;53.626;55.886;2023-02-28T04:12:15;76928.56;;;-145.10;100.00
56334;BME280;42240;53.626;55.886;2023-02-28T04:13:48;76922.63;;;-145.10;100.00
56334;BME280;42240;53.626;55.886;2023-02-28T04:15:22;76995.81;;;-145.10;100.00
56334;BME280;42240;53.626;55.886;2023-02-28T04:16:55;76944.38;;;-145.10;100.00
56334;BME280;42240;53.626;55.886;2023-02-28T04:18:29;76936.47;;;-145.10;100.00
56334;BME280;42240;53.626;55.886;2023-02-28T04:20:03;76932.53;;;-145.10;100.00
56334;BME280;42240;53.626;55.886;2023-02-28T04:21:44;76920.66;;;-145.10;100.00
56334;BME280;42240;53.626;55.886;2023-02-28T04:23:17;76932.53;;;-145.10;100.00
56334;BME280;42240;53.626;55.886;2023-02-28T04:24:50;76918.69;;;-145.10;100.00
56334;BME280;42240;53.626;55.886;2023-02-28T04:26:23;76964.16;;;-145.10;100.00
56334;BME280;42240;53.626;55.886;2023-02-28T04:27:56;76928.56;;;-145.10;100.00
56334;BME280;42240;53.626;55.886;2023-02-28T04:29:31;76924.59;;;-145.10;100.00
56334;BME280;42240;53.626;55.886;2023-02-28T04:31:05;76958.22;;;-145.10;100.00
56334;BME280;42240;53.626;55.886;2023-02-28T04:32:38;76968.13;;;-145.10;100.00
56334;BME280;42240;53.626;55.886;2023-02-28T04:34:11;76962.19;;;-145.10;100.00
56334;BME280;42240;53.626;55.886;2023-02-28T04:35:44;76956.25;;;-145.10;100.00
56334;BME280;42240;53.626;55.886;2023-02-28T04:37:17;76930.53;;;-145.10;100.00
56334;BME280;42240;53.626;55.886;2023-02-28T04:38:50;76920.66;;;-145.10;100.00
56334;BME280;42240;53.626;55.886;2023-02-28T04:40:24;76934.50;;;-145.10;100.00
56334;BME280;42240;53.626;55.886;2023-02-28T04:41:57;76932.53;;;-145.10;100.00
56334;BME280;42240;53.626;55.886;2023-02-28T04:43:31;76960.22;;;-145.10;100.00
56334;BME280;42240;53.626;55.886;2023-02-28T04:45:04;76991.84;;;-145.10;100.00
56334;BME280;42240;53.626;55.886;2023-02-28T04:46:38;76983.94;;;-145.10;100.00
56334;BME280;42240;53.626;55.886;2023-02-28T04:48:11;76978.00;;;-145.10;100.00
56334;BME280;42240;53.626;55.886;2023-02-28T04:49:44;76991.84;;;-145.10;100.00
56334;BME280;42240;53.626;55.886;2023-02-28T04:51:18;76979.97;;;-145.10;100.00
56334;BME280;42240;53.626;55.886;2023-02-28T04:52:51;76979.97;;;-145.10;100.00
56334;BME280;42240;53.626;55.886;2023-02-28T04:54:25;76976.03;;;-145.10;100.00
56334;BME280;42240;53.626;55.886;2023-02-28T04:55:58;76997.78;;;-145.10;100.00
56334;BME280;42240;53.626;55.886;2023-02-28T04:57:31;77007.66;;;-145.10;100.00
56334;BME280;42240;53.626;55.886;2023-02-28T04:59:04;76987.88;;;-145.10;100.00
56334;BME280;42240;53.626;55.886;2023-02-28T05:00:38;76995.81;;;-145.10;100.00
56334;BME280;42240;53.626;55.886;2023-02-28T05:02:11;77009.66;;;-145.10;100.00
56334;BME280;42240;53.626;55.886;2023-02-28T05:03:44;77051.19;;;-145.10;100.00
56334;BME280;42240;53.626;55.886;2023-02-28T05:05:17;76979.97;;;-145.10;100.00
56334;BME280;42240;53.626;55.886;2023-02-28T05:06:51;77003.72;;;-145.10;100.00
56334;BME280;42240;53.626;55.886;2023-02-28T05:08:23;76976.03;;;-145.10;100.00
56334;BME280;42240;53.626;55.886;2023-02-28T05:09:58;76978.00;;;-145.10;100.00
56334;BME280;42240;53.626;55.886;2023-02-28T05:11:32;76983.94;;;-145.10;100.00
56334;BME280;42240;53.626;55.886;2023-02-28T05:13:12;76999.75;;;-145.10;100.00
56334;BME280;42240;53.626;55.886;2023-02-28T05:14:45;76995.81;;;-145.10;100.00
56334;BME280;42240;53.626;55.886;2023-02-28T05:16:18;76995.81;;;-145.10;100.00
56334;BME280;42240;53.626;55.886;2023-02-28T05:17:51;77025.47;;;-145.10;100.00
56334;BME280;42240;53.626;55.886;2023-02-28T05:19:25;77059.09;;;-145.10;100.00
56334;BME280;42240;53.626;55.886;2023-02-28T05:20:58;77019.53;;;-145.10;100.00
56334;BME280;42240;53.626;55.886;2023-02-28T05:22:33;77003.72;;;-145.10;100.00
56334;BME280;42240;53.626;55.886;2023-02-28T05:24:10;76991.84;;;-145.10;100.00
56334;BME280;42240;53.626;55.886;2023-02-28T05:25:43;77023.50;;;-145.10;100.00
56334;BME280;42240;53.626;55.886;2023-02-28T05:27:16;77007.66;;;-145.10;100.00
56334;BME280;42240;53.626;55.886;2023-02-28T05:28:49;77021.50;;;-145.10;100.00
56334;BME280;42240;53.626;55.886;2023-02-28T05:30:22;77019.53;;;-145.10;100.00
56334;BME280;42240;53.626;55.886;2023-02-28T05:31:55;77035.34;;;-145.10;100.00
56334;BME280;42240;53.626;55.886;2023-02-28T05:33:28;77035.34;;;-145.10;100.00
56334;BME280;42240;53.626;55.886;2023-02-28T05:35:02;77015.56;;;-145.10;100.00
56334;BME280;42240;53.626;55.886;2023-02-28T05:36:36;76987.88;;;-145.10;100.00
56334;BME280;42240;53.626;55.886;2023-02-28T05:38:09;77015.56;;;-145.10;100.00
56334;BME280;42240;53.626;55.886;2023-02-28T05:39:43;76999.75;;;-145.10;100.00
56334;BME280;42240;53.626;55.886;2023-02-28T05:41:16;77011.63;;;-145.10;100.00
56334;BME280;42240;53.626;55.886;2023-02-28T05:42:52;76999.75;;;-145.10;100.00
56334;BME280;42240;53.626;55.886;2023-02-28T05:44:25;77007.66;;;-145.10;100.00
56334;BME280;42240;53.626;55.886;2023-02-28T05:45:58;77035.34;;;-145.10;100.00
56334;BME280;42240;53.626;55.886;2023-02-28T05:47:31;77001.72;;;-145.10;100.00
56334;BME280;42240;53.626;55.886;2023-02-28T05:49:04;76987.88;;;-145.10;100.00
56334;BME280;42240;53.626;55.886;2023-02-28T05:50:38;77007.66;;;-145.10;100.00
56334;BME280;42240;53.626;55.886;2023-02-28T05:52:10;76964.16;;;-145.10;100.00
56334;BME280;42240;53.626;55.886;2023-02-28T05:53:43;76960.22;;;-145.10;100.00
56334;BME280;42240;53.626;55.886;2023-02-28T05:55:17;76944.38;;;-145.10;100.00
56334;BME280;42240;53.626;55.886;2023-02-28T05:56:50;76936.47;;;-145.10;100.00
56334;BME280;42240;53.626;55.886;2023-02-28T05:58:22;76914.72;;;-145.10;100.00
56334;BME280;42240;53.626;55.886;2023-02-28T05:59:56;76914.72;;;-145.10;100.00
56334;BME280;42240;53.626;55.886;2023-02-28T06:01:38;76877.16;;;-145.10;100.00
56334;BME280;42240;53.626;55.886;2023-02-28T06:03:11;76867.25;;;-145.10;100.00
56334;BME280;42240;53.626;55.886;2023-02-28T06:04:45;76896.94;;;-145.10;100.00
56334;BME280;42240;53.626;55.886;2023-02-28T06:06:18;76875.16;;;-145.10;100.00
56334;BME280;42240;53.626;55.886;2023-02-28T06:07:51;76849.47;;;-145.10;100.00
56334;BME280;42240;53.626;55.886;2023-02-28T06:09:24;76863.31;;;-145.10;100.00
56334;BME280;42240;53.626;55.886;2023-02-28T06:10:57;76819.81;;;-145.10;100.00
56334;BME280;42240;53.626;55.886;2023-02-28T06:12:30;76861.34;;;-145.10;99.19
56334;BME280;42240;53.626;55.886;2023-02-28T06:14:03;76859.34;;;-145.10;99.22
56334;BME280;42240;53.626;55.886;2023-02-28T06:15:37;76835.63;;;-145.10;100.00
56334;BME280;42240;53.626;55.886;2023-02-28T06:17:10;76802.00;;;-145.10;100.00
56334;BME280;42240;53.626;55.886;2023-02-28T06:18:43;76794.09;;;-145.10;99.17
56334;BME280;42240;53.626;55.886;2023-02-28T06:20:16;76851.44;;;-145.10;96.56
56334;BME280;42240;53.626;55.886;2023-02-28T06:21:50;76800.03;;;-145.10;97.81
56334;BME280;42240;53.626;55.886;2023-02-28T11:31:29;76742.69;;;-145.10;96.18
56334;BME280;42240;53.626;55.886;2023-02-28T11:35:23;76720.94;;;-145.10;97.64
56334;BME280;42240;53.626;55.886;2023-02-28T11:36:59;76711.03;;;-145.10;98.44
56334;BME280;42240;53.626;55.886;2023-02-28T11:38:34;76736.75;;;-145.10;98.80
56334;BME280;42240;53.626;55.886;2023-02-28T11:40:14;76716.97;;;-145.10;98.76
56334;BME280;42240;53.626;55.886;2023-02-28T11:42:07;76746.63;;;-145.10;98.99
56334;BME280;42240;53.626;55.886;2023-02-28T11:46:30;76768.38;;;-145.10;100.00
56334;BME280;42240;53.626;55.886;2023-02-28T11:48:20;76770.38;;;-145.10;100.00
56334;BME280;42240;53.626;55.886;2023-02-28T11:51:47;76782.22;;;-145.10;100.00
56334;BME280;42240;53.626;55.886;2023-02-28T11:56:53;76807.94;;;-145.10;100.00
56334;BME280;42240;53.626;55.886;2023-02-28T12:11:32;76847.50;;;-145.10;100.00
56334;BME280;42240;53.626;55.886;2023-02-28T12:13:34;76802.00;;;-145.10;100.00
56334;BME280;42240;53.626;55.886;2023-02-28T12:18:09;76798.03;;;-145.10;100.00
56334;BME280;42240;53.626;55.886;2023-02-28T12:19:30;76817.81;;;-145.10;100.00
56334;BME280;42240;53.626;55.886;2023-02-28T12:21:25;76811.88;;;-145.10;100.00
56334;BME280;42240;53.626;55.886;2023-02-28T12:26:46;76766.41;;;-145.10;100.00
56334;BME280;42240;53.626;55.886;2023-02-28T12:28:27;76774.31;;;-145.10;100.00
56334;BME280;42240;53.626;55.886;2023-02-28T12:30:13;76778.28;;;-145.10;100.00
56334;BME280;42240;53.626;55.886;2023-02-28T12:32:45;76780.25;;;-145.10;100.00
56334;BME280;42240;53.626;55.886;2023-02-28T12:34:08;76776.28;;;-145.10;100.00
56334;BME280;42240;53.626;55.886;2023-02-28T12:36:05;76794.09;;;-145.10;100.00
56334;BME280;42240;53.626;55.886;2023-02-28T12:37:50;76849.47;;;-145.10;100.00
56334;BME280;42240;53.626;55.886;2023-02-28T12:39:50;76800.03;;;-145.10;100.00
56334;BME280;42240;53.626;55.886;2023-02-28T12:41:36;76794.09;;;-145.10;100.00
56334;BME280;42240;53.626;55.886;2023-02-28T12:43:15;76803.97;;;-145.10;100.00
56334;BME280;42240;53.626;55.886;2023-02-28T12:45:19;76796.06;;;-145.10;100.00
56334;BME280;42240;53.626;55.886;2023-02-28T12:47:00;76792.13;;;-145.10;100.00
56334;BME280;42240;53.626;55.886;2023-02-28T12:48:43;76807.94;;;-145.10;100.00
56334;BME280;42240;53.626;55.886;2023-02-28T12:50:19;76815.84;;;-145.10;100.00
56334;BME280;42240;53.626;55.886;2023-02-28T12:51:54;76825.72;;;-145.10;100.00
56334;BME280;42240;53.626;55.886;2023-02-28T12:59:02;76857.38;;;-145.10;100.00
56334;BME280;42240;53.626;55.886;2023-02-28T13:05:14;76873.19;;;-145.10;100.00
56334;BME280;42240;53.626;55.886;2023-02-28T13:10:44;76835.63;;;-145.10;100.00
56334;BME280;42240;53.626;55.886;2023-02-28T13:12:18;76849.47;;;-145.10;100.00
56334;BME280;42240;53.626;55.886;2023-02-28T13:14:26;76833.66;;;-145.10;100.00
56334;BME280;42240;53.626;55.886;2023-02-28T13:16:10;76833.66;;;-145.10;100.00
56334;BME280;42240;53.626;55.886;2023-02-28T13:17:48;76845.50;;;-145.10;100.00
56334;BME280;42240;53.626;55.886;2023-02-28T13:19:25;76837.59;;;-145.10;100.00
56334;BME280;42240;53.626;55.886;2023-02-28T13:21:00;76833.66;;;-145.10;100.00
56334;BME280;42240;53.626;55.886;2023-02-28T13:24:08;76837.59;;;-145.10;100.00
56334;BME280;42240;53.626;55.886;2023-02-28T13:29:28;76833.66;;;-145.10;100.00
56334;BME280;42240;53.626;55.886;2023-02-28T13:31:05;76835.63;;;-145.10;100.00
56334;BME280;42240;53.626;55.886;2023-02-28T13:32:45;76891.00;;;-145.10;100.00
56334;BME280;42240;53.626;55.886;2023-02-28T13:34:19;76845.50;;;-145.10;100.00
56334;BME280;42240;53.626;55.886;2023-02-28T13:36:23;76867.25;;;-145.10;100.00
56334;BME280;42240;53.626;55.886;2023-02-28T13:38:12;76851.44;;;-145.10;100.00
56334;BME280;42240;53.626;55.886;2023-02-28T13:39:59;76873.19;;;-145.10;100.00
56334;BME280;42240;53.626;55.886;2023-02-28T13:41:47;76896.94;;;-145.10;100.00
56334;BME280;42240;53.626;55.886;2023-02-28T13:43:20;76867.25;;;-145.10;100.00
56334;BME280;42240;53.626;55.886;2023-02-28T13:48:26;76855.41;;;-145.10;100.00
56334;BME280;42240;53.626;55.886;2023-02-28T13:50:37;76849.47;;;-145.10;100.00
56334;BME280;42240;53.626;55.886;2023-02-28T13:52:18;76855.41;;;-145.10;100.00
56334;BME280;42240;53.626;55.886;2023-02-28T13:54:06;76849.47;;;-145.10;100.00
56334;BME280;42240;53.626;55.886;2023-02-28T13:56:19;76867.25;;;-145.10;100.00
56334;BME280;42240;53.626;55.886;2023-02-28T13:57:57;76853.41;;;-145.10;100.00
56334;BME280;42240;53.626;55.886;2023-02-28T13:59:50;76865.28;;;-145.10;100.00
56334;BME280;42240;53.626;55.886;2023-02-28T14:01:40;76857.38;;;-145.10;100.00
56334;BME280;42240;53.626;55.886;2023-02-28T14:03:37;76857.38;;;-145.10;100.00
56334;BME280;42240;53.626;55.886;2023-02-28T14:05:17;76857.38;;;-145.10;100.00
56334;BME280;42240;53.626;55.886;2023-02-28T14:06:55;76865.28;;;-145.10;100.00
56334;BME280;42240;53.626;55.886;2023-02-28T14:08:29;76865.28;;;-145.10;100.00
56334;BME280;42240;53.626;55.886;2023-02-28T14:10:06;76851.44;;;-145.10;100.00
56334;BME280;42240;53.626;55.886;2023-02-28T14:11:43;76857.38;;;-145.10;100.00
56334;BME280;42240;53.626;55.886;2023-02-28T14:13:41;76841.56;;;-145.10;100.00
56334;BME280;42240;53.626;55.886;2023-02-28T14:15:49;76837.59;;;-145.10;100.00
56334;BME280;42240;53.626;55.886;2023-02-28T14:17:28;76853.41;;;-145.10;100.00
56334;BME280;42240;53.626;55.886;2023-02-28T14:19:24;76833.66;;;-145.10;100.00
56334;BME280;42240;53.626;55.886;2023-02-28T14:31:36;76845.50;;;-145.10;100.00
56334;BME280;42240;53.626;55.886;2023-02-28T14:33:24;76841.56;;;-145.10;100.00
56334;BME280;42240;53.626;55.886;2023-02-28T14:37:15;76843.53;;;-145.10;100.00
56334;BME280;42240;53.626;55.886;2023-02-28T14:39:11;76841.56;;;-145.10;100.00
56334;BME280;42240;53.626;55.886;2023-02-28T14:40:47;76837.59;;;-145.10;100.00
56334;BME280;42240;53.626;55.886;2023-02-28T14:42:34;76815.84;;;-145.10;100.00
56334;BME280;42240;53.626;55.886;2023-02-28T14:44:23;76813.88;;;-145.10;100.00
56334;BME280;42240;53.626;55.886;2023-02-28T14:45:59;76825.72;;;-145.10;100.00
56334;BME280;42240;53.626;55.886;2023-02-28T14:47:35;76803.97;;;-145.10;100.00
56334;BME280;42240;53.626;55.886;2023-02-28T14:49:35;76788.16;;;-145.10;100.00
56334;BME280;42240;53.626;55.886;2023-02-28T14:51:10;76817.81;;;-145.10;100.00